createdAt,value
2023-05-05T00:01:38.562Z,52.32
2023-05-05T00:04:05.862Z,52.53
2023-05-05T00:06:33.650Z,53.26
2023-05-05T00:09:00.943Z,52.42
2023-05-05T00:11:28.245Z,51.87
2023-05-05T00:13:55.698Z,51.39
2023-05-05T00:16:23.418Z,51.19
2023-05-05T00:18:50.824Z,51.01
2023-05-05T00:21:18.080Z,51.18
2023-05-05T00:23:45.424Z,51.72
2023-05-05T00:26:12.863Z,51.88
2023-05-05T00:28:40.356Z,52.36
2023-05-05T00:31:07.607Z,52.38
2023-05-05T00:33:35.144Z,52.57
2023-05-05T00:36:02.586Z,52.39
2023-05-05T00:38:29.920Z,52.25
2023-05-05T00:40:57.125Z,52.36
2023-05-05T00:43:24.722Z,52.81
2023-05-05T00:46:01.997Z,53.08
2023-05-05T00:48:32.630Z,52.92
2023-05-05T00:50:59.849Z,52.98
2023-05-05T00:53:27.159Z,52.99
2023-05-05T00:55:54.566Z,52.56
2023-05-05T00:58:21.795Z,52.25
2023-05-05T01:00:49.260Z,51.84
2023-05-05T01:03:16.994Z,52.09
2023-05-05T01:06:18.313Z,51.95
2023-05-05T01:09:13.176Z,51.66
2023-05-05T01:11:40.341Z,51.46
2023-05-05T01:14:18.994Z,51.41
2023-05-05T01:17:10.575Z,51.61
2023-05-05T01:20:07.967Z,51.38
2023-05-05T01:22:39.513Z,51.15
2023-05-05T01:25:33.741Z,51.12
2023-05-05T01:28:07.818Z,51.34
2023-05-05T01:30:44.159Z,51.19
2023-05-05T01:33:12.910Z,50.98
2023-05-05T01:35:44.066Z,51.05
2023-05-05T01:38:19.573Z,51.00
2023-05-05T01:40:57.963Z,50.40
2023-05-05T01:43:25.212Z,50.68
2023-05-05T01:45:52.479Z,50.42
2023-05-05T01:48:19.686Z,50.10
2023-05-05T01:50:47.148Z,49.85
2023-05-05T01:53:14.914Z,49.80
2023-05-05T01:55:42.112Z,50.40
2023-05-05T01:58:09.810Z,49.85
2023-05-05T02:00:37.021Z,51.81
2023-05-05T02:03:04.466Z,51.53
2023-05-05T02:05:32.718Z,53.62
2023-05-05T02:08:00.135Z,51.90
2023-05-05T02:10:27.877Z,53.39
2023-05-05T02:12:55.160Z,53.71
2023-05-05T02:15:22.600Z,55.74
2023-05-05T02:17:51.935Z,56.37
2023-05-05T02:20:19.842Z,57.70
2023-05-05T02:22:47.321Z,58.95
2023-05-05T02:25:14.660Z,57.94
2023-05-05T02:27:43.390Z,57.77
2023-05-05T02:30:12.387Z,58.43
2023-05-05T02:32:43.087Z,57.11
2023-05-05T02:35:15.534Z,58.94
2023-05-05T02:37:45.146Z,59.31
2023-05-05T02:40:12.505Z,59.57
2023-05-05T02:42:41.150Z,59.44
2023-05-05T02:45:11.633Z,58.91
2023-05-05T02:47:39.472Z,57.00
2023-05-05T02:50:07.522Z,55.97
2023-05-05T02:52:35.309Z,55.31
2023-05-05T02:55:03.353Z,57.73
2023-05-05T02:58:06.774Z,59.59
2023-05-05T03:00:41.420Z,59.58
2023-05-05T03:03:17.745Z,60.20
2023-05-05T03:05:51.469Z,57.49
2023-05-05T03:08:28.375Z,57.62
2023-05-05T03:11:06.247Z,60.56
2023-05-05T03:13:37.196Z,58.39
2023-05-05T03:16:06.743Z,57.19
2023-05-05T03:18:37.747Z,57.87
2023-05-05T03:21:11.081Z,58.52
2023-05-05T03:23:38.374Z,63.04
2023-05-05T03:26:05.801Z,61.42
2023-05-05T03:28:33.742Z,61.13
2023-05-05T03:31:01.062Z,62.53
2023-05-05T03:33:28.427Z,64.11
2023-05-05T03:35:56.038Z,63.32
2023-05-05T03:38:23.292Z,64.27
2023-05-05T03:40:50.561Z,63.77
2023-05-05T03:43:17.824Z,66.56
2023-05-05T03:45:45.091Z,66.69
2023-05-05T03:48:12.359Z,67.40
2023-05-05T03:50:39.568Z,65.15
2023-05-05T03:53:06.795Z,64.74
2023-05-05T03:55:34.037Z,63.61
2023-05-05T03:58:01.366Z,64.58
2023-05-05T04:00:28.878Z,64.88
2023-05-05T04:02:56.432Z,62.67
2023-05-05T04:05:23.772Z,63.34
2023-05-05T04:07:51.092Z,66.40
2023-05-05T04:10:18.381Z,65.61
2023-05-05T04:12:46.296Z,65.78
2023-05-05T04:15:13.584Z,64.60
2023-05-05T04:17:41.675Z,64.72
2023-05-05T04:20:09.649Z,63.80
2023-05-05T04:22:37.197Z,62.82
2023-05-05T04:25:04.766Z,62.29
2023-05-05T04:27:32.648Z,60.94
2023-05-05T04:29:59.934Z,58.33
2023-05-05T04:32:27.195Z,58.01
2023-05-05T04:34:54.605Z,52.52
2023-05-05T04:37:21.928Z,50.33
2023-05-05T04:39:49.254Z,52.50
2023-05-05T04:42:16.556Z,51.47
2023-05-05T04:44:43.775Z,50.96
2023-05-05T04:47:13.888Z,51.44
2023-05-05T04:49:41.861Z,53.37
2023-05-05T04:52:09.136Z,53.77
2023-05-05T04:54:37.379Z,54.05
2023-05-05T04:57:04.630Z,53.97
2023-05-05T04:59:31.966Z,53.38
2023-05-05T05:01:59.211Z,51.96
2023-05-05T05:04:27.342Z,50.82
2023-05-05T05:06:56.143Z,46.25
2023-05-05T05:09:25.775Z,46.42
2023-05-05T05:11:53.022Z,46.02
2023-05-05T05:14:20.229Z,47.28
2023-05-05T05:16:51.210Z,48.12
2023-05-05T05:19:18.655Z,48.07
2023-05-05T05:21:45.901Z,48.42
2023-05-05T05:24:13.104Z,49.26
2023-05-05T05:26:40.299Z,47.01
2023-05-05T05:29:07.576Z,47.35
2023-05-05T05:31:36.854Z,47.57
2023-05-05T05:34:04.326Z,46.40
2023-05-05T05:36:31.813Z,45.68
2023-05-05T05:38:59.079Z,46.37
2023-05-05T05:41:26.371Z,48.85
2023-05-05T05:43:53.632Z,51.24
2023-05-05T05:46:21.355Z,52.28
2023-05-05T05:48:48.665Z,51.55
2023-05-05T05:51:15.866Z,52.20
2023-05-05T05:53:43.077Z,51.06
2023-05-05T05:56:10.383Z,51.40
2023-05-05T05:58:37.662Z,50.18
2023-05-05T06:01:05.201Z,47.56
2023-05-05T06:03:32.588Z,47.85
2023-05-05T06:05:59.918Z,47.93
2023-05-05T06:08:27.175Z,48.74
2023-05-05T06:10:54.715Z,48.88
2023-05-05T06:13:21.943Z,49.10
2023-05-05T06:15:49.276Z,48.57
2023-05-05T06:18:16.673Z,47.51
2023-05-05T06:20:43.951Z,48.08
2023-05-05T06:23:11.175Z,47.95
2023-05-05T06:25:38.398Z,47.87
2023-05-05T06:28:05.648Z,49.06
2023-05-05T06:30:32.977Z,47.53
2023-05-05T06:33:00.277Z,47.80
2023-05-05T06:35:27.838Z,47.54
2023-05-05T06:37:55.136Z,47.57
2023-05-05T06:40:22.479Z,46.47
2023-05-05T06:42:49.701Z,46.42
2023-05-05T06:45:17.460Z,46.64
2023-05-05T06:47:44.699Z,46.46
2023-05-05T06:50:12.296Z,46.68
2023-05-05T06:52:39.897Z,46.66
2023-05-05T06:55:07.783Z,46.18
2023-05-05T06:57:35.821Z,46.20
2023-05-05T07:00:05.821Z,47.10
2023-05-05T07:02:34.042Z,44.92
2023-05-05T07:05:01.394Z,47.17
2023-05-05T07:07:28.612Z,44.68
2023-05-05T07:09:56.581Z,45.00
2023-05-05T07:12:23.880Z,44.71
2023-05-05T07:14:51.377Z,45.36
2023-05-05T07:17:18.889Z,46.81
2023-05-05T07:19:46.294Z,48.02
2023-05-05T07:22:13.536Z,47.13
2023-05-05T07:24:40.770Z,45.71
2023-05-05T07:27:08.119Z,44.36
2023-05-05T07:29:35.749Z,44.64
2023-05-05T07:32:03.026Z,45.41
2023-05-05T07:34:32.784Z,45.36
2023-05-05T07:37:00.174Z,46.19
2023-05-05T07:39:27.361Z,46.04
2023-05-05T07:41:54.556Z,45.15
2023-05-05T07:44:21.765Z,44.17
2023-05-05T07:46:49.101Z,45.25
2023-05-05T07:49:16.306Z,43.06
2023-05-05T07:51:43.663Z,42.89
2023-05-05T07:54:11.381Z,42.23
2023-05-05T07:56:38.804Z,42.15
2023-05-05T07:59:06.019Z,40.80
2023-05-05T08:01:33.495Z,40.97
2023-05-05T08:04:00.805Z,41.92
2023-05-05T08:06:28.631Z,42.68
2023-05-05T08:08:55.986Z,41.76
2023-05-05T08:11:23.399Z,40.57
2023-05-05T08:13:50.647Z,40.69
2023-05-05T08:16:18.148Z,42.47
2023-05-05T08:18:45.587Z,41.63
2023-05-05T08:21:12.973Z,38.75
2023-05-05T08:23:40.282Z,39.74
2023-05-05T08:26:07.595Z,39.66
2023-05-05T08:28:36.762Z,39.87
2023-05-05T08:31:04.586Z,39.47
2023-05-05T08:33:32.559Z,39.50
2023-05-05T08:35:59.776Z,37.66
2023-05-05T08:38:27.215Z,38.25
2023-05-05T08:40:54.434Z,39.08
2023-05-05T08:43:23.982Z,38.63
2023-05-05T08:45:54.174Z,39.45
2023-05-05T08:48:21.512Z,37.79
2023-05-05T08:50:51.856Z,37.93
2023-05-05T08:53:24.533Z,38.00
2023-05-05T08:55:52.065Z,37.36
2023-05-05T08:58:19.745Z,36.94
2023-05-05T09:00:47.095Z,38.00
2023-05-05T09:03:14.387Z,37.51
2023-05-05T09:05:42.780Z,39.42
2023-05-05T09:08:13.049Z,36.82
2023-05-05T09:10:41.023Z,37.11
2023-05-05T09:13:08.330Z,37.60
2023-05-05T09:15:35.925Z,37.53
2023-05-05T09:18:05.252Z,35.60
2023-05-05T09:20:37.333Z,33.99
2023-05-05T09:23:17.495Z,33.27
2023-05-05T09:25:46.137Z,31.53
2023-05-05T09:28:14.737Z,31.10
2023-05-05T09:30:43.442Z,31.50
2023-05-05T09:33:10.856Z,29.69
2023-05-05T09:35:48.951Z,28.75
2023-05-05T09:38:16.441Z,28.09
2023-05-05T09:40:47.969Z,26.94
2023-05-05T09:43:16.252Z,26.50
2023-05-05T09:45:43.782Z,25.06
2023-05-05T09:48:26.835Z,25.88
2023-05-05T09:50:54.736Z,25.62
2023-05-05T09:53:22.272Z,26.23
2023-05-05T09:55:56.259Z,25.38
2023-05-05T09:58:27.545Z,24.84
2023-05-05T10:00:55.702Z,24.34
2023-05-05T10:03:22.953Z,24.89
2023-05-05T10:05:54.032Z,24.36
2023-05-05T10:08:32.096Z,25.11
2023-05-05T10:11:00.905Z,24.57
2023-05-05T10:13:28.237Z,24.20
2023-05-05T10:15:56.625Z,24.26
2023-05-05T10:18:25.504Z,24.09
2023-05-05T10:21:00.003Z,24.51
2023-05-05T10:23:46.623Z,25.16
2023-05-05T10:26:14.178Z,25.81
2023-05-05T10:28:44.749Z,27.00
2023-05-05T10:31:26.440Z,28.08
2023-05-05T10:34:00.282Z,28.33
2023-05-05T10:36:27.961Z,28.64
2023-05-05T10:38:56.845Z,27.53
2023-05-05T10:41:24.794Z,27.07
2023-05-05T10:43:53.063Z,25.82
2023-05-05T10:46:20.457Z,25.31
2023-05-05T10:49:11.761Z,24.87
2023-05-05T10:51:46.246Z,25.34
2023-05-05T10:54:32.705Z,25.41
2023-05-05T10:57:02.638Z,25.30
2023-05-05T10:59:36.442Z,24.95
2023-05-05T11:02:22.422Z,25.65
2023-05-05T11:05:08.366Z,24.28
2023-05-05T11:07:36.696Z,24.09
2023-05-05T11:10:08.151Z,24.47
2023-05-05T11:12:54.704Z,24.99
2023-05-05T11:15:27.923Z,26.40
2023-05-05T11:17:58.740Z,27.00
2023-05-05T11:20:35.339Z,27.30
2023-05-05T11:23:02.557Z,26.86
2023-05-05T11:25:40.778Z,28.54
2023-05-05T11:28:34.446Z,29.11
2023-05-05T11:31:01.703Z,29.12
2023-05-05T11:33:29.822Z,29.79
2023-05-05T11:36:01.322Z,29.40
2023-05-05T11:38:44.507Z,28.53
2023-05-05T11:41:21.216Z,29.49
2023-05-05T11:43:48.504Z,29.71
2023-05-05T11:46:19.762Z,30.33
2023-05-05T11:48:47.195Z,30.08
2023-05-05T11:51:19.579Z,29.92
2023-05-05T11:53:48.246Z,29.44
2023-05-05T11:56:20.506Z,28.47
2023-05-05T11:59:09.803Z,26.55
2023-05-05T12:01:41.362Z,26.61
2023-05-05T12:04:20.657Z,25.94
2023-05-05T12:06:49.042Z,25.88
2023-05-05T12:09:20.053Z,26.03
2023-05-05T12:11:54.241Z,25.70
2023-05-05T12:14:21.818Z,25.19
2023-05-05T12:16:58.557Z,25.54
2023-05-05T12:19:32.966Z,25.89
2023-05-05T12:22:03.842Z,25.34
2023-05-05T12:24:31.326Z,26.23
2023-05-05T12:27:11.226Z,26.30
2023-05-05T12:29:39.009Z,26.30
2023-05-05T12:32:06.571Z,27.88
2023-05-05T12:34:34.285Z,27.65
2023-05-05T12:37:01.615Z,27.11
2023-05-05T12:39:36.575Z,27.07
2023-05-05T12:42:04.247Z,27.18
2023-05-05T12:44:38.568Z,26.41
2023-05-05T12:47:06.219Z,26.38
2023-05-05T12:49:52.587Z,26.78
2023-05-05T12:52:20.880Z,27.00
2023-05-05T12:54:55.186Z,27.34
2023-05-05T12:57:23.095Z,26.11
2023-05-05T12:59:51.104Z,25.61
2023-05-05T13:02:18.739Z,23.58
2023-05-05T13:04:50.377Z,23.33
2023-05-05T13:07:19.489Z,23.93
2023-05-05T13:09:50.314Z,23.09
2023-05-05T13:12:18.418Z,23.04
2023-05-05T13:14:46.661Z,24.33
2023-05-05T13:17:14.177Z,23.87
2023-05-05T13:19:46.508Z,22.78
2023-05-05T13:22:14.067Z,22.72
2023-05-05T13:24:51.631Z,24.17
2023-05-05T13:27:20.110Z,25.87
2023-05-05T13:29:47.522Z,26.88
2023-05-05T13:32:15.088Z,28.22
2023-05-05T13:34:43.602Z,29.03
2023-05-05T13:37:10.905Z,28.75
2023-05-05T13:39:38.335Z,28.34
2023-05-05T13:42:05.698Z,27.62
2023-05-05T13:44:33.489Z,25.77
2023-05-05T13:47:00.844Z,24.47
2023-05-05T13:49:28.081Z,24.52
2023-05-05T13:51:56.342Z,24.30
2023-05-05T13:54:23.648Z,24.06
2023-05-05T13:56:50.996Z,24.34
2023-05-05T13:59:18.229Z,24.74
2023-05-05T14:01:45.569Z,25.64
2023-05-05T14:04:12.934Z,26.18
2023-05-05T14:06:40.292Z,24.78
2023-05-05T14:09:08.169Z,25.00
2023-05-05T14:11:35.800Z,25.53
2023-05-05T14:14:03.129Z,25.57
2023-05-05T14:16:30.963Z,24.70
2023-05-05T14:18:58.298Z,24.99
2023-05-05T14:21:25.518Z,24.30
2023-05-05T14:23:52.727Z,23.99
2023-05-05T14:26:19.985Z,23.43
2023-05-05T14:28:49.474Z,23.72
2023-05-05T14:31:17.789Z,23.58
2023-05-05T14:33:45.149Z,22.93
2023-05-05T14:36:12.676Z,23.20
2023-05-05T14:38:40.041Z,23.64
2023-05-05T14:41:07.342Z,24.03
2023-05-05T14:43:34.677Z,23.55
2023-05-05T14:46:06.737Z,23.53
2023-05-05T14:48:34.469Z,23.09
2023-05-05T14:51:01.909Z,23.60
2023-05-05T14:53:29.641Z,23.89
2023-05-05T14:55:56.866Z,23.57
2023-05-05T14:58:24.781Z,24.11
2023-05-05T15:00:52.885Z,24.45
2023-05-05T15:03:20.676Z,23.86
2023-05-05T15:05:47.941Z,23.99
2023-05-05T15:08:15.221Z,24.57
2023-05-05T15:10:42.562Z,25.16
2023-05-05T15:13:09.973Z,24.13
2023-05-05T15:15:37.255Z,23.86
2023-05-05T15:18:04.705Z,24.11
2023-05-05T15:20:32.874Z,24.80
2023-05-05T15:23:01.364Z,26.01
2023-05-05T15:25:28.587Z,26.46
2023-05-05T15:27:56.426Z,26.91
2023-05-05T15:30:23.661Z,26.75
2023-05-05T15:32:51.279Z,27.51
2023-05-05T15:35:18.681Z,27.84
2023-05-05T15:37:45.934Z,28.72
2023-05-05T15:40:13.475Z,28.12
2023-05-05T15:42:40.751Z,28.32
2023-05-05T15:45:12.036Z,28.75
2023-05-05T15:47:39.248Z,28.74
2023-05-05T15:50:07.304Z,28.90
2023-05-05T15:52:35.495Z,30.03
2023-05-05T15:55:02.761Z,29.13
2023-05-05T15:57:30.389Z,29.36
2023-05-05T15:59:58.287Z,28.98
2023-05-05T16:02:25.626Z,29.47
2023-05-05T16:04:53.527Z,29.06
2023-05-05T16:07:20.799Z,30.64
2023-05-05T16:09:48.080Z,32.27
2023-05-05T16:12:15.476Z,31.12
2023-05-05T16:14:42.736Z,31.91
2023-05-05T16:17:10.005Z,29.86
2023-05-05T16:19:37.597Z,30.98
2023-05-05T16:22:05.153Z,30.14
2023-05-05T16:24:32.509Z,31.51
2023-05-05T16:27:00.011Z,32.23
2023-05-05T16:29:27.288Z,31.14
2023-05-05T16:31:54.585Z,32.29
2023-05-05T16:34:22.039Z,31.04
2023-05-05T16:36:49.352Z,31.10
2023-05-05T16:39:16.630Z,31.07
2023-05-05T16:41:43.887Z,32.33
2023-05-05T16:44:11.102Z,34.31
2023-05-05T16:46:40.117Z,33.65
2023-05-05T16:49:07.516Z,34.93
2023-05-05T16:51:36.180Z,35.66
2023-05-05T16:54:03.540Z,35.64
2023-05-05T16:56:30.804Z,36.75
2023-05-05T16:58:58.045Z,36.32
2023-05-05T17:01:25.413Z,37.15
2023-05-05T17:03:55.308Z,38.24
2023-05-05T17:06:22.590Z,37.46
2023-05-05T17:08:49.837Z,38.16
2023-05-05T17:11:17.040Z,39.01
2023-05-05T17:13:44.290Z,38.78
2023-05-05T17:16:11.668Z,39.20
2023-05-05T17:18:39.040Z,39.79
2023-05-05T17:21:06.411Z,39.97
2023-05-05T17:23:33.739Z,40.82
2023-05-05T17:26:02.890Z,40.12
2023-05-05T17:28:30.154Z,40.56
2023-05-05T17:30:59.904Z,40.78
2023-05-05T17:33:27.393Z,40.98
2023-05-05T17:35:54.750Z,39.77
2023-05-05T17:38:22.104Z,40.78
2023-05-05T17:40:49.469Z,39.46
2023-05-05T17:43:16.752Z,39.11
2023-05-05T17:45:44.077Z,40.57
2023-05-05T17:48:11.295Z,41.60
2023-05-05T17:50:38.556Z,42.17
2023-05-05T17:53:05.772Z,43.13
2023-05-05T17:55:33.084Z,43.88
2023-05-05T17:58:00.600Z,44.60
2023-05-05T18:00:28.205Z,45.13
2023-05-05T18:02:55.490Z,46.02
2023-05-05T18:05:22.874Z,46.62
2023-05-05T18:07:50.110Z,47.34
2023-05-05T18:10:17.351Z,48.19
2023-05-05T18:12:44.845Z,48.51
2023-05-05T18:15:12.333Z,49.74
2023-05-05T18:17:40.444Z,50.09
2023-05-05T18:20:08.425Z,50.10
2023-05-05T18:22:38.079Z,50.97
2023-05-05T18:25:08.020Z,51.11
2023-05-05T18:27:36.122Z,51.80
2023-05-05T18:30:04.838Z,51.68
2023-05-05T18:32:33.012Z,52.89
2023-05-05T18:35:00.378Z,53.68
2023-05-05T18:37:28.033Z,53.89
2023-05-05T18:39:55.293Z,54.08
2023-05-05T18:42:22.602Z,53.99
2023-05-05T18:44:49.814Z,54.75
2023-05-05T18:47:17.330Z,55.13
2023-05-05T18:49:45.485Z,55.78
2023-05-05T18:52:13.583Z,56.31
2023-05-05T18:54:41.006Z,57.07
2023-05-05T18:57:08.229Z,58.13
2023-05-05T18:59:35.887Z,58.82
2023-05-05T19:02:03.155Z,59.77
2023-05-05T19:04:32.182Z,60.06
2023-05-05T19:07:00.152Z,60.88
2023-05-05T19:09:27.742Z,61.20
2023-05-05T19:11:55.021Z,62.26
2023-05-05T19:14:23.282Z,63.00
2023-05-05T19:16:50.545Z,63.98
2023-05-05T19:19:18.254Z,64.72
2023-05-05T19:21:45.521Z,65.19
2023-05-05T19:24:12.775Z,65.83
2023-05-05T19:26:40.091Z,65.94
2023-05-05T19:29:07.410Z,66.47
2023-05-05T19:31:34.981Z,67.14
2023-05-05T19:34:03.346Z,67.48
2023-05-05T19:36:31.721Z,68.00
2023-05-05T19:39:03.630Z,68.88
2023-05-05T19:41:31.396Z,69.81
2023-05-05T19:43:58.690Z,70.11
2023-05-05T19:46:26.513Z,71.03
2023-05-05T19:48:53.911Z,71.04
2023-05-05T19:51:21.361Z,71.63
2023-05-05T19:53:48.582Z,72.66
2023-05-05T19:56:17.109Z,73.42
2023-05-05T19:58:57.745Z,74.31
2023-05-05T20:01:25.460Z,75.20
2023-05-05T20:03:54.530Z,75.58
2023-05-05T20:06:22.060Z,76.11
2023-05-05T20:08:49.271Z,77.23
2023-05-05T20:11:17.043Z,77.46
2023-05-05T20:13:44.639Z,77.78
2023-05-05T20:16:12.317Z,77.80
2023-05-05T20:18:40.284Z,77.80
2023-05-05T20:21:07.596Z,78.23
2023-05-05T20:23:44.277Z,78.35
2023-05-05T20:26:13.044Z,79.05
2023-05-05T20:28:43.297Z,78.84
2023-05-05T20:31:14.193Z,79.27
2023-05-05T20:33:41.642Z,80.06
2023-05-05T20:36:08.939Z,80.20
2023-05-05T20:38:36.267Z,80.53
2023-05-05T20:41:03.652Z,80.83
2023-05-05T20:43:31.306Z,81.38
2023-05-05T20:45:58.541Z,81.02
2023-05-05T20:48:25.805Z,81.93
2023-05-05T20:50:53.158Z,82.02
2023-05-05T20:53:21.008Z,81.95
2023-05-05T20:55:49.824Z,82.39
2023-05-05T20:58:17.281Z,82.58
2023-05-05T21:00:44.579Z,83.20
2023-05-05T21:03:12.204Z,83.63
2023-05-05T21:05:40.884Z,83.40
2023-05-05T21:08:08.359Z,83.57
2023-05-05T21:10:36.136Z,83.88
2023-05-05T21:13:03.618Z,84.33
2023-05-05T21:15:31.966Z,85.47
2023-05-05T21:17:59.318Z,84.42
2023-05-05T21:20:26.892Z,85.46
2023-05-05T21:22:56.588Z,86.36
2023-05-05T21:25:24.312Z,86.79
2023-05-05T21:27:51.670Z,87.59
2023-05-05T21:30:18.996Z,88.00
2023-05-05T21:32:46.536Z,87.94
2023-05-05T21:35:14.025Z,88.82
2023-05-05T21:37:41.575Z,88.98
2023-05-05T21:40:13.251Z,89.94
2023-05-05T21:42:41.430Z,89.72
2023-05-05T21:45:09.997Z,89.44
2023-05-05T21:47:37.507Z,89.06
2023-05-05T21:50:05.025Z,89.26
2023-05-05T21:52:32.526Z,89.68
2023-05-05T21:54:59.806Z,90.00
2023-05-05T21:57:27.218Z,90.59
2023-05-05T21:59:54.397Z,90.93
2023-05-05T22:02:21.594Z,89.68
2023-05-05T22:04:51.315Z,89.68
2023-05-05T22:07:18.623Z,90.40
2023-05-05T22:09:46.231Z,89.69
2023-05-05T22:12:13.594Z,89.58
2023-05-05T22:14:40.976Z,90.06
2023-05-05T22:17:08.260Z,90.50
2023-05-05T22:19:35.955Z,91.32
2023-05-05T22:22:03.418Z,91.23
2023-05-05T22:24:30.879Z,91.10
2023-05-05T22:26:58.378Z,90.99
2023-05-05T22:29:25.960Z,90.97
2023-05-05T22:31:53.421Z,91.06
2023-05-05T22:34:21.936Z,90.79
2023-05-05T22:36:49.657Z,91.06
2023-05-05T22:39:18.567Z,90.99
2023-05-05T22:41:46.424Z,90.63
2023-05-05T22:44:13.787Z,91.49
2023-05-05T22:46:41.075Z,91.07
2023-05-05T22:49:08.812Z,91.75
2023-05-05T22:51:36.277Z,92.19
2023-05-05T22:54:03.614Z,92.26
2023-05-05T22:56:31.260Z,91.95
2023-05-05T22:58:58.594Z,91.95
2023-05-05T23:01:26.112Z,90.69
2023-05-05T23:03:53.523Z,90.67
2023-05-05T23:06:20.820Z,90.61
2023-05-05T23:08:49.433Z,90.70
2023-05-05T23:11:17.157Z,91.11
2023-05-05T23:13:44.520Z,90.39
2023-05-05T23:16:11.858Z,90.74
2023-05-05T23:18:39.197Z,91.32
2023-05-05T23:21:06.538Z,90.95
2023-05-05T23:23:34.149Z,89.75
2023-05-05T23:26:01.484Z,89.81
2023-05-05T23:28:28.703Z,89.86
2023-05-05T23:30:56.057Z,89.27
2023-05-05T23:33:23.624Z,89.62
2023-05-05T23:35:50.974Z,90.07
2023-05-05T23:38:18.738Z,89.91
2023-05-05T23:40:45.940Z,90.66
2023-05-05T23:43:13.333Z,90.63
2023-05-05T23:45:40.565Z,90.67
2023-05-05T23:48:08.170Z,90.53
2023-05-05T23:50:35.593Z,90.17
2023-05-05T23:53:02.836Z,91.08
2023-05-05T23:55:30.368Z,91.55
2023-05-05T23:57:57.814Z,92.03
